Time;durP1;ratioP1;P1;durP2;ratioP2;P2;SDS_P1;SDS_P2;PMS_P1;PMS_P2;Temp;Humidity;BMP_temperature;BMP_pressure;BME280_temperature;BME280_humidity;BME280_pressure;Samples;Min_cycle;Max_cycle;Signal;HPM_P1;HPM_P2
2023/08/14 00:01:54;;;;;;;6.60;3.77;;;21.70;99.90;;;;;;5069978;28;20233;-55
2023/08/14 00:04:19;;;;;;;4.10;3.37;;;21.70;99.90;;;;;;5083992;28;20216;-56
2023/08/14 00:06:45;;;;;;;6.90;4.07;;;21.70;99.90;;;;;;5065528;28;20194;-55
2023/08/14 00:09:10;;;;;;;4.33;3.90;;;21.60;99.90;;;;;;5052134;28;20195;-55
2023/08/14 00:11:35;;;;;;;6.50;4.00;;;21.60;99.90;;;;;;5070851;28;20201;-56
2023/08/14 00:14:01;;;;;;;4.23;3.50;;;21.60;99.90;;;;;;5072609;28;20231;-56
2023/08/14 00:16:27;;;;;;;6.93;4.00;;;21.60;99.90;;;;;;5072850;28;20219;-56
2023/08/14 00:18:53;;;;;;;4.73;4.03;;;21.60;99.90;;;;;;5072783;28;20209;-56
2023/08/14 00:21:18;;;;;;;5.80;4.00;;;21.60;99.90;;;;;;5071612;28;20198;-56
2023/08/14 00:23:44;;;;;;;5.37;3.90;;;21.50;99.90;;;;;;5073928;28;20228;-56
2023/08/14 00:26:12;;;;;;;5.20;4.20;;;21.50;99.90;;;;;;5078314;28;20197;-56
2023/08/14 00:28:38;;;;;;;4.17;3.47;;;21.50;99.90;;;;;;5077665;28;20687;-56
2023/08/14 00:31:03;;;;;;;4.87;4.37;;;21.50;99.90;;;;;;5066412;28;20274;-55
2023/08/14 00:33:29;;;;;;;6.73;3.73;;;21.50;99.90;;;;;;5067436;28;20209;-56
2023/08/14 00:35:54;;;;;;;4.63;3.70;;;21.50;99.90;;;;;;5046811;28;20229;-56
2023/08/14 00:38:20;;;;;;;5.40;4.20;;;21.50;99.90;;;;;;5076125;28;20968;-57
2023/08/14 00:40:45;;;;;;;4.13;3.73;;;21.40;99.90;;;;;;5076817;28;20202;-56
2023/08/14 00:43:11;;;;;;;6.43;4.20;;;21.40;99.90;;;;;;5076429;28;20213;-55
2023/08/14 00:45:37;;;;;;;4.27;3.87;;;21.50;99.90;;;;;;5070311;28;20190;-55
2023/08/14 00:48:03;;;;;;;6.17;4.40;;;21.40;99.90;;;;;;5065992;28;20192;-55
2023/08/14 00:50:29;;;;;;;4.90;4.33;;;21.40;99.90;;;;;;5073199;28;20205;-56
2023/08/14 00:52:57;;;;;;;7.13;4.23;;;21.40;99.90;;;;;;5059751;28;20198;-56
2023/08/14 00:55:26;;;;;;;4.37;3.97;;;21.40;99.90;;;;;;5074207;28;22518;-55
2023/08/14 00:57:55;;;;;;;6.33;4.40;;;21.40;99.90;;;;;;5069130;28;20190;-61
2023/08/14 01:00:22;;;;;;;5.50;4.57;;;21.40;99.90;;;;;;5082701;28;20617;-57
2023/08/14 01:02:49;;;;;;;6.67;4.40;;;21.40;99.90;;;;;;5071791;28;20232;-55
2023/08/14 01:05:15;;;;;;;6.43;4.17;;;21.30;99.90;;;;;;5078088;28;20194;-56
2023/08/14 01:07:40;;;;;;;4.53;4.13;;;21.30;99.90;;;;;;5076457;28;20313;-55
2023/08/14 01:10:08;;;;;;;4.37;3.90;;;21.30;99.90;;;;;;5070230;28;20284;-55
2023/08/14 01:12:59;;;;;;;4.20;3.93;;;21.30;99.90;;;;;;5076981;28;20190;-55
2023/08/14 01:15:34;;;;;;;4.77;4.00;;;21.30;99.90;;;;;;5078507;28;20193;-55
2023/08/14 01:18:01;;;;;;;4.13;3.80;;;21.30;99.90;;;;;;5071953;28;20213;-55
2023/08/14 01:20:31;;;;;;;5.93;4.60;;;21.30;99.90;;;;;;5079800;28;20228;-55
2023/08/14 01:23:20;;;;;;;7.23;4.80;;;21.30;99.90;;;;;;5072488;28;20810;-55
2023/08/14 01:25:47;;;;;;;6.20;4.13;;;21.30;99.90;;;;;;5075675;28;20208;-55
2023/08/14 01:28:13;;;;;;;6.33;4.40;;;21.20;99.90;;;;;;5070116;28;20276;-56
2023/08/14 01:30:39;;;;;;;9.60;5.17;;;21.20;99.90;;;;;;5062656;28;20190;-56
2023/08/14 01:33:05;;;;;;;4.50;4.13;;;21.20;99.90;;;;;;5080637;28;20199;-55
2023/08/14 01:35:38;;;;;;;5.00;4.50;;;21.20;99.90;;;;;;5071680;28;20197;-55
2023/08/14 01:38:15;;;;;;;7.33;4.60;;;21.20;99.90;;;;;;5074524;28;20201;-55
2023/08/14 01:41:08;;;;;;;4.57;3.80;;;21.10;99.90;;;;;;5073689;28;20193;-55
2023/08/14 01:43:40;;;;;;;4.67;4.13;;;21.10;99.90;;;;;;5070154;28;20215;-55
2023/08/14 01:46:08;;;;;;;6.80;4.60;;;21.10;99.90;;;;;;5069590;28;20181;-55
2023/08/14 01:48:36;;;;;;;4.87;4.37;;;21.00;99.90;;;;;;5069204;28;20339;-55
2023/08/14 01:51:02;;;;;;;5.60;4.53;;;21.00;99.90;;;;;;5065219;28;20257;-55
2023/08/14 01:53:28;;;;;;;5.17;4.67;;;21.00;99.90;;;;;;5072011;28;20195;-54
2023/08/14 01:55:53;;;;;;;4.60;4.20;;;21.00;99.90;;;;;;5072771;28;20199;-55
2023/08/14 01:58:19;;;;;;;4.77;4.33;;;20.90;99.90;;;;;;5072084;28;20189;-55
2023/08/14 02:00:44;;;;;;;5.10;4.10;;;20.90;99.90;;;;;;5062650;28;20190;-54
2023/08/14 02:03:10;;;;;;;4.47;4.07;;;20.80;99.90;;;;;;5075536;28;20231;-56
2023/08/14 02:05:35;;;;;;;4.83;4.40;;;20.80;99.90;;;;;;5077961;28;20197;-56
2023/08/14 02:08:01;;;;;;;5.43;4.93;;;20.80;99.90;;;;;;5074123;28;20199;-56
2023/08/14 02:10:26;;;;;;;5.03;3.97;;;20.60;99.90;;;;;;5072215;28;20605;-55
2023/08/14 02:12:52;;;;;;;4.87;4.47;;;20.60;99.90;;;;;;5070844;28;20284;-56
2023/08/14 02:15:17;;;;;;;4.57;4.20;;;20.60;99.90;;;;;;5078536;28;20205;-56
2023/08/14 02:17:42;;;;;;;4.93;4.43;;;20.60;99.90;;;;;;5068401;28;20798;-56
2023/08/14 02:20:09;;;;;;;4.57;4.17;;;20.60;99.90;;;;;;5070390;28;20200;-56
2023/08/14 02:22:34;;;;;;;4.20;3.90;;;20.50;99.90;;;;;;5065690;28;20205;-56
2023/08/14 02:25:00;;;;;;;7.33;4.80;;;20.50;99.90;;;;;;5078005;28;20188;-57
2023/08/14 02:27:25;;;;;;;4.80;4.10;;;20.50;99.90;;;;;;5067197;28;20212;-56
2023/08/14 02:29:51;;;;;;;5.67;4.70;;;20.50;99.90;;;;;;5076977;28;20184;-56
2023/08/14 02:32:16;;;;;;;5.80;5.23;;;20.50;99.90;;;;;;5073537;28;20210;-56
2023/08/14 02:34:46;;;;;;;8.27;4.57;;;20.40;99.90;;;;;;5074382;28;20185;-55
2023/08/14 02:37:14;;;;;;;4.43;4.10;;;20.40;99.90;;;;;;5069277;28;20648;-55
2023/08/14 02:39:40;;;;;;;4.67;4.10;;;20.30;99.90;;;;;;5069732;28;20752;-55
2023/08/14 02:42:06;;;;;;;6.33;4.50;;;20.30;99.90;;;;;;5067577;28;20190;-56
2023/08/14 02:44:32;;;;;;;4.67;4.27;;;20.20;99.90;;;;;;5069831;28;20720;-56
2023/08/14 02:46:58;;;;;;;4.83;4.33;;;20.20;99.90;;;;;;5071774;28;20223;-55
2023/08/14 02:49:24;;;;;;;7.57;4.90;;;20.20;99.90;;;;;;5082114;28;20188;-55
2023/08/14 02:51:50;;;;;;;5.00;4.50;;;20.20;99.90;;;;;;5073174;28;20184;-56
2023/08/14 02:54:15;;;;;;;5.00;4.57;;;20.20;99.90;;;;;;5075450;28;20274;-56
2023/08/14 02:56:40;;;;;;;4.80;4.40;;;20.20;99.90;;;;;;5080350;28;20202;-56
2023/08/14 02:59:06;;;;;;;5.50;5.00;;;20.10;99.90;;;;;;5082719;28;20213;-56
2023/08/14 03:01:31;;;;;;;5.47;4.97;;;20.10;99.90;;;;;;5079748;28;20736;-55
2023/08/14 03:03:57;;;;;;;5.50;4.80;;;20.10;99.90;;;;;;5069462;28;20224;-56
2023/08/14 03:06:22;;;;;;;4.87;4.47;;;20.00;99.90;;;;;;5073953;28;20548;-56
2023/08/14 03:08:49;;;;;;;5.10;4.40;;;19.90;99.90;;;;;;5081454;28;20200;-56
2023/08/14 03:11:15;;;;;;;6.23;4.90;;;19.90;99.90;;;;;;5079066;28;20287;-55
2023/08/14 03:13:40;;;;;;;4.47;4.17;;;19.90;99.90;;;;;;5083247;28;20192;-60
2023/08/14 03:16:06;;;;;;;4.43;4.03;;;19.90;99.90;;;;;;5080723;28;20225;-58
2023/08/14 03:18:31;;;;;;;5.73;4.63;;;19.90;99.90;;;;;;5065772;28;20203;-55
2023/08/14 03:20:57;;;;;;;5.00;4.60;;;19.80;99.90;;;;;;5071790;28;20189;-56
2023/08/14 03:23:22;;;;;;;6.83;5.10;;;19.80;99.90;;;;;;5079860;28;20220;-54
2023/08/14 03:25:48;;;;;;;7.00;5.07;;;19.80;99.90;;;;;;5075524;28;20211;-57
2023/08/14 03:28:13;;;;;;;5.33;4.83;;;19.70;99.90;;;;;;5074151;28;20702;-54
2023/08/14 03:30:43;;;;;;;4.67;4.27;;;19.70;99.90;;;;;;5072511;28;20196;-55
2023/08/14 03:33:08;;;;;;;5.93;5.33;;;19.70;99.90;;;;;;5078228;28;20207;-56
2023/08/14 03:35:33;;;;;;;5.60;4.97;;;19.60;99.90;;;;;;5067359;28;20208;-56
2023/08/14 03:37:59;;;;;;;6.83;5.23;;;19.60;99.90;;;;;;5066981;28;20193;-56
2023/08/14 03:40:25;;;;;;;4.97;4.57;;;19.60;99.90;;;;;;5084772;28;20279;-56
2023/08/14 03:42:50;;;;;;;5.47;4.77;;;19.60;99.90;;;;;;5072591;28;20281;-54
2023/08/14 03:45:16;;;;;;;5.47;5.07;;;19.60;99.90;;;;;;5060934;28;20303;-54
2023/08/14 03:47:41;;;;;;;8.80;5.37;;;19.50;99.90;;;;;;5072938;28;20253;-54
2023/08/14 03:50:07;;;;;;;5.70;5.13;;;19.50;99.90;;;;;;5068460;28;20189;-54
2023/08/14 03:52:32;;;;;;;8.70;4.90;;;19.50;99.90;;;;;;5073501;28;20547;-54
2023/08/14 03:54:58;;;;;;;8.53;6.57;;;19.40;99.90;;;;;;5073114;28;20295;-54
2023/08/14 03:57:23;;;;;;;6.10;5.10;;;19.40;99.90;;;;;;5070379;28;21033;-56
2023/08/14 03:59:49;;;;;;;7.23;4.23;;;19.40;99.90;;;;;;5074794;28;20251;-55
2023/08/14 04:02:14;;;;;;;6.50;4.80;;;19.40;99.90;;;;;;5078215;28;20660;-56
2023/08/14 04:04:40;;;;;;;5.53;5.03;;;19.30;99.90;;;;;;5079442;28;20839;-56
2023/08/14 04:07:05;;;;;;;8.97;5.47;;;19.30;99.90;;;;;;5076606;28;20210;-55
2023/08/14 04:09:31;;;;;;;6.90;5.10;;;19.30;99.90;;;;;;5072723;28;20562;-57
2023/08/14 04:11:56;;;;;;;6.60;6.00;;;19.30;99.90;;;;;;5064835;28;20200;-55
2023/08/14 04:14:23;;;;;;;6.03;5.23;;;19.20;99.90;;;;;;5069645;28;20257;-54
2023/08/14 04:16:48;;;;;;;5.63;5.10;;;19.20;99.90;;;;;;5070728;28;20204;-54
2023/08/14 04:19:15;;;;;;;5.53;4.97;;;19.20;99.90;;;;;;5066440;28;20584;-54
2023/08/14 04:21:42;;;;;;;5.43;5.00;;;19.20;99.90;;;;;;5072967;28;20199;-57
2023/08/14 04:24:08;;;;;;;5.87;5.47;;;19.20;99.90;;;;;;5081158;28;20232;-53
2023/08/14 04:26:34;;;;;;;9.10;5.37;;;19.20;99.90;;;;;;5057843;28;20198;-54
2023/08/14 04:29:00;;;;;;;5.97;5.27;;;19.20;99.90;;;;;;5064783;28;20973;-54
2023/08/14 04:31:25;;;;;;;5.50;5.00;;;19.10;99.90;;;;;;5071052;28;20193;-53
2023/08/14 04:33:51;;;;;;;7.20;6.50;;;19.20;99.90;;;;;;5081202;28;20315;-54
2023/08/14 04:36:16;;;;;;;6.17;5.20;;;19.20;99.90;;;;;;5074923;28;20723;-55
2023/08/14 04:38:42;;;;;;;7.30;5.80;;;19.20;99.90;;;;;;5083110;28;20728;-56
2023/08/14 04:41:07;;;;;;;5.70;5.20;;;19.10;99.90;;;;;;5067080;28;20220;-55
2023/08/14 04:43:33;;;;;;;6.90;5.63;;;19.10;99.90;;;;;;5069426;28;20261;-55
2023/08/14 04:46:08;;;;;;;5.57;5.07;;;19.10;99.90;;;;;;5059570;28;20621;-55
2023/08/14 04:48:33;;;;;;;5.90;5.13;;;19.20;99.90;;;;;;5059932;28;20195;-54
2023/08/14 04:50:58;;;;;;;5.53;4.97;;;19.20;99.90;;;;;;5082094;28;20203;-55
2023/08/14 04:53:24;;;;;;;5.87;5.37;;;19.20;99.90;;;;;;5063372;28;20200;-55
2023/08/14 04:55:51;;;;;;;5.80;5.20;;;19.20;99.90;;;;;;5076724;28;20252;-57
2023/08/14 04:58:16;;;;;;;9.07;5.40;;;19.20;99.90;;;;;;5063344;28;20242;-58
2023/08/14 05:00:42;;;;;;;6.20;5.57;;;19.20;99.90;;;;;;5074563;28;20197;-58
2023/08/14 05:03:07;;;;;;;6.80;4.90;;;19.20;99.90;;;;;;5080040;28;20259;-58
2023/08/14 05:05:33;;;;;;;4.90;4.30;;;19.20;99.90;;;;;;5067439;28;20196;-55
2023/08/14 05:07:58;;;;;;;5.70;4.63;;;19.20;99.90;;;;;;5072048;28;20339;-56
2023/08/14 05:10:24;;;;;;;5.87;5.27;;;19.30;99.90;;;;;;5065763;28;20285;-55
2023/08/14 05:12:49;;;;;;;5.37;4.87;;;19.30;99.90;;;;;;5078085;28;20194;-56
2023/08/14 05:15:14;;;;;;;8.27;5.07;;;19.40;99.90;;;;;;5074121;28;20594;-55
2023/08/14 05:17:40;;;;;;;6.30;5.33;;;19.40;99.90;;;;;;5082013;28;20204;-56
2023/08/14 05:20:06;;;;;;;5.40;4.90;;;19.40;99.90;;;;;;5061761;28;20205;-56
2023/08/14 05:22:31;;;;;;;5.80;5.20;;;19.50;99.90;;;;;;5069199;28;20306;-56
2023/08/14 05:24:57;;;;;;;6.07;5.07;;;19.50;99.90;;;;;;5072013;28;20231;-56
2023/08/14 05:27:22;;;;;;;5.63;5.10;;;19.60;99.90;;;;;;5072543;28;20296;-56
2023/08/14 05:29:48;;;;;;;8.40;5.47;;;19.60;99.90;;;;;;5069010;28;20243;-56
2023/08/14 05:32:13;;;;;;;5.07;4.67;;;19.70;99.90;;;;;;5063589;28;20571;-56
2023/08/14 05:34:39;;;;;;;7.40;4.70;;;19.70;99.90;;;;;;5044216;28;20195;-55
2023/08/14 05:37:04;;;;;;;6.03;4.77;;;19.80;99.90;;;;;;5062582;28;20554;-55
2023/08/14 05:39:30;;;;;;;28.57;13.67;;;19.80;99.90;;;;;;5058086;28;20255;-55
2023/08/14 05:41:55;;;;;;;6.80;4.40;;;19.90;99.90;;;;;;5071731;28;20212;-55
2023/08/14 05:44:21;;;;;;;8.60;4.70;;;20.00;99.90;;;;;;5065221;28;20913;-55
2023/08/14 05:46:46;;;;;;;11.97;7.63;;;20.00;99.90;;;;;;5077693;28;20200;-55
2023/08/14 05:49:12;;;;;;;6.00;5.37;;;20.00;99.90;;;;;;5077717;28;20348;-57
2023/08/14 05:51:37;;;;;;;9.27;4.67;;;20.10;99.90;;;;;;5074258;28;20710;-56
2023/08/14 05:54:03;;;;;;;5.00;4.30;;;20.20;99.90;;;;;;5078897;28;20271;-56
2023/08/14 05:56:29;;;;;;;5.33;4.63;;;20.20;99.90;;;;;;5075482;28;20194;-54
2023/08/14 05:58:57;;;;;;;5.50;4.90;;;20.30;99.90;;;;;;5067500;28;20205;-55
2023/08/14 06:01:23;;;;;;;4.37;3.97;;;20.30;99.90;;;;;;5068343;28;20230;-54
2023/08/14 06:03:49;;;;;;;5.13;4.57;;;20.30;99.90;;;;;;5061759;28;20231;-54
2023/08/14 06:06:14;;;;;;;4.93;4.43;;;20.30;99.90;;;;;;5069576;28;20195;-55
2023/08/14 06:08:40;;;;;;;5.13;4.23;;;20.40;99.90;;;;;;5074636;28;20631;-55
2023/08/14 06:11:05;;;;;;;7.93;5.40;;;20.50;99.90;;;;;;5078725;28;20646;-55
2023/08/14 06:13:31;;;;;;;9.30;5.57;;;20.60;99.90;;;;;;5081326;28;20188;-56
2023/08/14 06:15:57;;;;;;;5.77;4.53;;;20.60;99.90;;;;;;5076591;28;20206;-55
2023/08/14 06:18:23;;;;;;;6.53;4.10;;;20.60;99.90;;;;;;5071580;28;20233;-55
2023/08/14 06:20:50;;;;;;;5.80;4.93;;;20.70;99.90;;;;;;5068556;28;20189;-55
2023/08/14 06:23:16;;;;;;;4.47;3.80;;;20.90;99.90;;;;;;5082242;28;20232;-55
2023/08/14 06:25:41;;;;;;;7.00;3.97;;;20.80;99.90;;;;;;5078129;28;20811;-56
2023/08/14 06:28:07;;;;;;;7.47;4.10;;;20.80;99.90;;;;;;5074021;28;20200;-56
2023/08/14 06:30:32;;;;;;;4.70;4.00;;;20.80;99.90;;;;;;5077571;28;20636;-56
2023/08/14 06:32:58;;;;;;;7.87;3.50;;;21.00;99.90;;;;;;5072476;28;20205;-57
2023/08/14 06:35:23;;;;;;;5.60;4.57;;;21.20;99.90;;;;;;5079806;28;20315;-57
2023/08/14 06:37:49;;;;;;;4.27;3.63;;;21.20;99.90;;;;;;5076624;28;20538;-57
2023/08/14 06:40:15;;;;;;;5.07;3.93;;;21.10;99.90;;;;;;5068465;28;20548;-57
2023/08/14 06:42:40;;;;;;;4.00;3.67;;;21.20;99.90;;;;;;5066424;28;20194;-58
2023/08/14 06:45:06;;;;;;;6.03;4.33;;;21.20;99.90;;;;;;5030953;28;20185;-55
2023/08/14 06:50:07;;;;;;;4.20;3.47;;;21.50;99.90;;;;;;5073669;28;20275;-55
2023/08/14 06:52:33;;;;;;;9.55;4.03;;;21.50;99.90;;;;;;5079078;28;20820;-54
2023/08/14 06:54:58;;;;;;;6.07;3.70;;;21.80;99.90;;;;;;5063076;28;20189;-54
2023/08/14 06:57:24;;;;;;;4.05;3.65;;;21.90;99.90;;;;;;5066470;28;20202;-55
2023/08/14 06:59:49;;;;;;;5.78;3.90;;;22.00;99.90;;;;;;5069488;28;20181;-55
2023/08/14 07:02:15;;;;;;;5.80;3.63;;;22.00;99.90;;;;;;5077787;28;20682;-55
2023/08/14 07:04:41;;;;;;;4.97;4.30;;;21.90;99.90;;;;;;5079454;28;20549;-55
2023/08/14 07:07:06;;;;;;;10.00;4.67;;;21.90;99.90;;;;;;5080121;28;20754;-56
2023/08/14 07:09:33;;;;;;;4.87;4.10;;;21.90;99.90;;;;;;5078596;28;20194;-56
2023/08/14 07:11:58;;;;;;;4.40;3.80;;;22.10;99.90;;;;;;5079172;28;20185;-55
2023/08/14 07:14:23;;;;;;;5.53;3.70;;;22.20;99.90;;;;;;5078013;28;20247;-57
2023/08/14 07:16:49;;;;;;;4.28;3.80;;;22.20;99.90;;;;;;5078156;28;20562;-57
2023/08/14 07:19:15;;;;;;;6.67;4.20;;;22.20;99.90;;;;;;5067511;28;20214;-57
2023/08/14 07:21:40;;;;;;;4.82;3.50;;;22.20;99.90;;;;;;5066805;28;20198;-59
2023/08/14 07:24:06;;;;;;;7.90;3.20;;;22.20;99.90;;;;;;5054623;28;20234;-56
2023/08/14 07:26:31;;;;;;;4.82;3.50;;;22.40;99.90;;;;;;5067783;28;20202;-59
2023/08/14 07:28:57;;;;;;;6.75;3.85;;;22.60;99.90;;;;;;5068830;28;20251;-57
2023/08/14 07:31:22;;;;;;;5.38;3.45;;;22.60;99.90;;;;;;5064963;28;20766;-57
2023/08/14 07:33:48;;;;;;;7.88;2.38;;;22.60;99.90;;;;;;5069484;28;20183;-57
2023/08/14 07:36:13;;;;;;;4.07;3.58;;;22.60;99.90;;;;;;5075075;28;20282;-57
2023/08/14 07:38:39;;;;;;;3.53;3.22;;;22.70;99.90;;;;;;5067101;28;20187;-57
2023/08/14 07:41:04;;;;;;;3.22;2.72;;;22.90;99.90;;;;;;5068979;28;20255;-56
2023/08/14 07:43:30;;;;;;;7.20;3.35;;;22.90;99.90;;;;;;5067452;28;20251;-62
2023/08/14 07:45:55;;;;;;;3.20;2.88;;;23.00;99.90;;;;;;5058915;28;20287;-59
2023/08/14 07:48:21;;;;;;;12.95;2.60;;;23.00;99.90;;;;;;5044612;28;20312;-57
2023/08/14 07:50:54;;;;;;;5.97;2.75;;;23.20;99.90;;;;;;5041625;28;20186;-57
2023/08/14 07:53:19;;;;;;;4.88;3.13;;;23.20;99.90;;;;;;5071644;28;20530;-55
2023/08/14 07:55:47;;;;;;;8.00;3.45;;;23.20;99.90;;;;;;5059776;28;20285;-55
2023/08/14 07:58:12;;;;;;;3.40;2.83;;;23.50;99.90;;;;;;5067078;28;20860;-56
2023/08/14 08:00:38;;;;;;;3.45;2.85;;;23.60;99.90;;;;;;5071646;28;20273;-57
2023/08/14 08:03:04;;;;;;;2.63;2.42;;;23.50;99.90;;;;;;5050438;28;20691;-56
2023/08/14 08:05:31;;;;;;;4.32;2.88;;;23.50;99.90;;;;;;5064115;28;20222;-56
2023/08/14 08:07:56;;;;;;;8.68;2.80;;;23.40;99.90;;;;;;5074161;28;21099;-54
2023/08/14 08:10:22;;;;;;;4.35;2.60;;;23.40;99.90;;;;;;5065022;28;20201;-56
2023/08/14 08:12:47;;;;;;;2.95;2.65;;;23.40;99.90;;;;;;5065078;28;20362;-59
2023/08/14 08:15:13;;;;;;;3.17;2.53;;;23.50;99.90;;;;;;5061878;28;20737;-58
2023/08/14 08:17:39;;;;;;;4.05;2.63;;;23.50;99.90;;;;;;5034779;28;20242;-57
2023/08/14 08:20:05;;;;;;;7.83;2.93;;;23.60;99.90;;;;;;5073013;28;20652;-58
2023/08/14 08:22:31;;;;;;;2.80;2.60;;;23.60;99.90;;;;;;5070612;28;20218;-57
2023/08/14 08:24:57;;;;;;;3.88;2.88;;;23.60;99.90;;;;;;5048196;28;20745;-57
2023/08/14 08:27:22;;;;;;;4.82;2.72;;;23.70;99.90;;;;;;5065474;28;20194;-57
2023/08/14 08:29:48;;;;;;;3.55;2.90;;;23.70;99.90;;;;;;5061630;28;20206;-55
2023/08/14 08:32:13;;;;;;;6.10;2.60;;;23.70;99.90;;;;;;5053688;28;20198;-56
2023/08/14 08:34:39;;;;;;;4.00;3.00;;;23.70;99.90;;;;;;5050813;28;20190;-63
2023/08/14 08:37:04;;;;;;;3.55;2.22;;;23.80;99.90;;;;;;5045877;28;20207;-58
2023/08/14 08:39:29;;;;;;;3.08;2.47;;;24.00;99.90;;;;;;5045356;28;20775;-55
2023/08/14 08:41:56;;;;;;;5.38;2.10;;;24.20;99.90;;;;;;5064512;28;20334;-56
2023/08/14 08:44:25;;;;;;;3.28;2.88;;;24.50;99.90;;;;;;5038006;28;20306;-60
2023/08/14 08:47:02;;;;;;;4.80;2.78;;;24.50;99.90;;;;;;5038174;28;20213;-54
2023/08/14 08:49:28;;;;;;;2.95;2.03;;;24.60;99.90;;;;;;5055190;28;20222;-60
2023/08/14 08:51:54;;;;;;;3.35;2.30;;;24.50;99.90;;;;;;5065345;28;20729;-54
2023/08/14 08:54:20;;;;;;;4.55;2.53;;;24.60;99.90;;;;;;5054410;28;20208;-55
2023/08/14 08:56:46;;;;;;;2.97;2.60;;;24.70;99.90;;;;;;5065726;28;20195;-60
2023/08/14 08:59:12;;;;;;;6.47;2.20;;;24.80;99.90;;;;;;5050943;28;20677;-57
2023/08/14 09:01:38;;;;;;;4.25;2.58;;;24.70;99.90;;;;;;5062443;28;20193;-57
2023/08/14 09:04:04;;;;;;;7.93;2.38;;;24.80;99.90;;;;;;5049758;28;20268;-57
2023/08/14 09:06:30;;;;;;;3.47;2.58;;;24.70;99.90;;;;;;5064212;28;20282;-61
2023/08/14 09:08:56;;;;;;;6.32;3.42;;;24.70;99.90;;;;;;5055184;28;20198;-58
2023/08/14 09:11:22;;;;;;;3.47;2.58;;;24.90;99.90;;;;;;5056929;28;20291;-57
2023/08/14 09:13:48;;;;;;;4.40;3.30;;;25.10;99.90;;;;;;5062580;28;20202;-57
2023/08/14 09:16:15;;;;;;;51.92;15.32;;;25.10;99.90;;;;;;5063616;28;20194;-61
2023/08/14 09:18:43;;;;;;;13.32;4.32;;;25.10;99.90;;;;;;5052970;28;20199;-58
2023/08/14 09:21:08;;;;;;;5.30;2.50;;;24.40;99.90;;;;;;5078964;28;20205;-59
2023/08/14 09:23:34;;;;;;;3.83;2.75;;;23.80;99.90;;;;;;5066132;28;20576;-64
2023/08/14 09:26:00;;;;;;;3.72;2.88;;;23.40;99.90;;;;;;5070441;28;20291;-59
2023/08/14 09:28:26;;;;;;;9.15;2.92;;;22.80;99.90;;;;;;5044361;28;20527;-63
2023/08/14 09:30:51;;;;;;;3.97;2.83;;;22.40;99.90;;;;;;5058508;28;20674;-54
2023/08/14 09:33:17;;;;;;;4.32;3.10;;;21.90;99.90;;;;;;5053862;28;20198;-58
2023/08/14 09:35:52;;;;;;;5.47;3.35;;;21.70;99.90;;;;;;5058599;28;20562;-56
2023/08/14 09:38:17;;;;;;;4.75;2.88;;;21.20;99.90;;;;;;5058063;28;20178;-57
2023/08/14 09:40:43;;;;;;;2.63;2.28;;;21.20;99.90;;;;;;5061309;28;20199;-57
2023/08/14 09:43:11;;;;;;;4.47;2.88;;;21.00;99.90;;;;;;5065892;28;20680;-57
2023/08/14 09:45:36;;;;;;;4.03;3.23;;;21.10;99.90;;;;;;5048379;28;20274;-56
2023/08/14 09:48:03;;;;;;;4.33;2.87;;;21.30;99.90;;;;;;5063914;28;20779;-56
2023/08/14 09:50:30;;;;;;;5.00;2.60;;;20.90;99.90;;;;;;5060064;28;20667;-54
2023/08/14 09:52:57;;;;;;;2.17;2.03;;;20.80;99.90;;;;;;5063215;28;20184;-54
2023/08/14 09:55:24;;;;;;;4.28;2.40;;;21.30;99.90;;;;;;5046224;28;20209;-56
2023/08/14 09:57:50;;;;;;;4.05;2.90;;;21.50;99.90;;;;;;5056400;28;20195;-55
2023/08/14 10:00:16;;;;;;;5.57;3.17;;;21.00;99.90;;;;;;5062368;28;20190;-57
2023/08/14 10:02:44;;;;;;;7.07;3.13;;;20.60;99.90;;;;;;5050559;28;20542;-57
2023/08/14 10:05:10;;;;;;;3.45;2.80;;;21.20;99.90;;;;;;5055597;28;20217;-56
2023/08/14 10:07:38;;;;;;;3.40;2.35;;;21.50;99.90;;;;;;5056338;28;20913;-54
2023/08/14 10:10:11;;;;;;;3.78;2.72;;;22.10;99.90;;;;;;5059820;28;20195;-56
2023/08/14 10:12:51;;;;;;;2.58;2.33;;;22.40;99.90;;;;;;5048982;28;20457;-54
2023/08/14 10:15:41;;;;;;;5.30;2.35;;;22.20;99.90;;;;;;5051394;28;20178;-57
2023/08/14 10:18:13;;;;;;;3.70;2.35;;;22.00;99.90;;;;;;5061349;28;20564;-56
2023/08/14 10:20:42;;;;;;;4.55;2.42;;;22.60;99.90;;;;;;5053127;28;20656;-56
2023/08/14 10:23:09;;;;;;;2.70;2.47;;;22.80;99.90;;;;;;5061127;28;20314;-61
2023/08/14 10:25:36;;;;;;;1.92;1.83;;;23.20;99.90;;;;;;5044889;28;20221;-57
2023/08/14 10:28:03;;;;;;;3.78;2.30;;;23.50;99.90;;;;;;5055313;28;20346;-57
2023/08/14 10:30:30;;;;;;;4.05;2.50;;;23.30;99.90;;;;;;5046763;28;20297;-59
2023/08/14 10:32:56;;;;;;;3.72;1.90;;;22.70;99.90;;;;;;5056106;28;20183;-58
2023/08/14 10:35:23;;;;;;;3.67;2.72;;;23.00;99.90;;;;;;5053373;28;20190;-58
2023/08/14 10:37:49;;;;;;;4.40;2.47;;;23.20;99.90;;;;;;5059157;28;20189;-58
2023/08/14 10:40:19;;;;;;;2.70;2.08;;;23.30;99.90;;;;;;5063896;28;20354;-58
2023/08/14 10:42:51;;;;;;;1.88;1.75;;;24.00;99.90;;;;;;5058330;28;20271;-58
2023/08/14 10:45:20;;;;;;;2.75;2.20;;;24.00;99.90;;;;;;5049021;28;20236;-57
2023/08/14 10:47:46;;;;;;;3.13;2.15;;;24.00;99.90;;;;;;5049029;28;20319;-57
2023/08/14 10:50:18;;;;;;;2.47;2.28;;;24.40;99.90;;;;;;5052329;28;20227;-57
2023/08/14 10:53:04;;;;;;;2.38;1.77;;;24.70;99.90;;;;;;5051878;28;20201;-57
2023/08/14 10:55:39;;;;;;;1.75;1.60;;;24.40;99.90;;;;;;5056322;28;20187;-57
2023/08/14 10:58:35;;;;;;;4.80;2.40;;;24.50;99.90;;;;;;5065864;28;20240;-57
2023/08/14 11:01:02;;;;;;;3.35;1.58;;;25.00;99.70;;;;;;5042862;28;20232;-57
2023/08/14 11:03:28;;;;;;;2.38;1.75;;;25.60;99.90;;;;;;5065999;28;20220;-57
2023/08/14 11:05:54;;;;;;;5.25;2.00;;;25.70;99.90;;;;;;5066185;28;20186;-57
2023/08/14 11:08:21;;;;;;;2.20;2.00;;;25.70;98.70;;;;;;5065029;28;20179;-57
2023/08/14 11:10:49;;;;;;;2.10;1.80;;;25.70;98.00;;;;;;5064334;28;20928;-57
2023/08/14 11:13:14;;;;;;;2.83;2.28;;;25.80;99.90;;;;;;5057145;28;20204;-57
2023/08/14 11:15:40;;;;;;;3.00;2.72;;;26.00;98.30;;;;;;5065110;28;20189;-58
2023/08/14 11:18:09;;;;;;;4.43;2.38;;;26.70;98.60;;;;;;5063764;28;20342;-56
2023/08/14 11:20:39;;;;;;;3.97;2.03;;;26.80;99.90;;;;;;5058447;28;20555;-57
2023/08/14 11:23:05;;;;;;;4.10;2.13;;;26.70;97.30;;;;;;5058891;28;20709;-56
2023/08/14 11:25:32;;;;;;;2.72;1.70;;;26.80;99.00;;;;;;5053721;28;20194;-55
2023/08/14 11:27:58;;;;;;;2.40;2.20;;;27.30;98.80;;;;;;5057065;28;20203;-54
2023/08/14 11:30:33;;;;;;;2.53;2.13;;;27.60;95.50;;;;;;5053614;28;20209;-57
2023/08/14 11:32:58;;;;;;;2.88;2.20;;;27.60;96.20;;;;;;5054925;28;20181;-53
2023/08/14 11:35:28;;;;;;;1.92;1.70;;;27.90;95.60;;;;;;5059217;28;20198;-56
2023/08/14 11:37:54;;;;;;;1.88;1.73;;;29.00;93.30;;;;;;5056127;28;20175;-54
2023/08/14 11:40:20;;;;;;;3.38;2.47;;;28.30;95.00;;;;;;5055963;28;20225;-57
2023/08/14 11:42:45;;;;;;;1.92;1.83;;;27.90;94.80;;;;;;5060642;28;20198;-55
2023/08/14 11:45:11;;;;;;;3.13;2.08;;;28.50;93.30;;;;;;5051305;28;20724;-57
2023/08/14 11:47:39;;;;;;;2.17;1.98;;;28.30;95.60;;;;;;5057949;28;20260;-56
2023/08/14 11:50:07;;;;;;;21.35;4.47;;;28.80;94.50;;;;;;5058009;28;20232;-63
2023/08/14 11:52:34;;;;;;;3.70;1.70;;;29.70;91.40;;;;;;5041461;28;20193;-59
2023/08/14 11:55:00;;;;;;;3.03;1.92;;;29.20;93.70;;;;;;5063686;28;20248;-58
2023/08/14 11:57:26;;;;;;;1.70;1.60;;;29.20;90.20;;;;;;5064977;28;20664;-58
2023/08/14 11:59:56;;;;;;;2.30;2.10;;;28.90;92.10;;;;;;5069322;28;20210;-58
2023/08/14 12:02:23;;;;;;;2.45;1.55;;;29.30;91.50;;;;;;5064758;28;20720;-59
2023/08/14 12:04:56;;;;;;;2.13;1.90;;;29.80;89.90;;;;;;5047437;28;20228;-58
2023/08/14 12:07:24;;;;;;;1.85;1.75;;;29.40;90.10;;;;;;5058902;28;20178;-56
2023/08/14 12:09:49;;;;;;;2.28;2.08;;;29.60;90.10;;;;;;5062155;28;20200;-56
2023/08/14 12:12:16;;;;;;;4.00;2.60;;;29.50;90.80;;;;;;5064851;28;20652;-59
2023/08/14 12:14:44;;;;;;;2.42;2.25;;;30.30;85.20;;;;;;5063276;28;20657;-54
2023/08/14 12:17:10;;;;;;;3.05;2.10;;;30.30;89.50;;;;;;5059486;28;20343;-56
2023/08/14 12:19:37;;;;;;;3.17;2.22;;;30.70;84.70;;;;;;5043286;28;20202;-55
2023/08/14 12:22:02;;;;;;;2.40;2.05;;;30.90;86.50;;;;;;5062240;28;20332;-57
2023/08/14 12:24:37;;;;;;;1.88;1.73;;;30.50;88.10;;;;;;5059418;28;20218;-55
2023/08/14 12:27:03;;;;;;;3.53;2.35;;;30.70;83.70;;;;;;5061742;28;20174;-55
2023/08/14 12:29:28;;;;;;;2.53;2.30;;;30.70;87.60;;;;;;5044611;28;20194;-57
2023/08/14 12:31:54;;;;;;;3.45;2.40;;;31.30;86.70;;;;;;5062113;28;20297;-57
2023/08/14 12:34:21;;;;;;;3.83;2.25;;;31.20;86.30;;;;;;5062128;28;20727;-57
2023/08/14 12:36:46;;;;;;;2.70;2.50;;;30.80;84.40;;;;;;5063289;28;20201;-59
2023/08/14 12:39:12;;;;;;;2.78;2.25;;;31.70;81.80;;;;;;5045734;28;20194;-59
2023/08/14 12:41:38;;;;;;;9.63;2.53;;;32.20;80.90;;;;;;5064074;28;20232;-59
2023/08/14 12:44:04;;;;;;;3.10;2.65;;;31.80;80.50;;;;;;5064099;28;20228;-59
2023/08/14 12:46:30;;;;;;;2.15;2.03;;;31.70;81.20;;;;;;5066480;28;20765;-60